»·PEaware :: N815M KSBP-KSAC

N815M :: KSBP-KSAC

FLIGHT INFORMATION

Flight Status: Arrived
Operator: Privately registered:
United States
More flights under this callsign
Pilot: Robert C. (30425)
Aircraft: BEECH AIRCRAFT DEBONAIR BONANZA
(BE33)
More flights by this aircraft type
Origin: KSBP San Luis Co Regl
United States
Destination: KSAC Sacramento Executive
United States
More flights between these airports :: More routes between these airports
Route: PRB ROM PXN
File this flight plan on PilotEdge
Remarks: NONE
Altitude:
(Current/Filed)
4,500ft
Speed:
(Current/Filed)
165kts
Departed: 28-Jul-20 07:49 PM
Arrived: 28-Jul-20 09:11 PM
Distance/Time
Traveled:
201nm/1:21
Distance/Time
To Go:
Arrived

Flight Plot

Page will automatically refresh every two minutes.


Map Options




Map Legend


Flown Route
Filed Route
Departure Airport
Arrival Airport
Navaid (VOR, NDB)
Fix

Horizontal Profiles

Position Reports

Time Latitude Longitude Heading Altitude Ground
Speed
28-Jul-20 19:23 35.234205 -120.632864 306 216ft 0kts
28-Jul-20 19:24 35.234205 -120.632864 306 216ft 0kts
28-Jul-20 19:25 35.234205 -120.632864 306 216ft 0kts
28-Jul-20 19:25 35.234205 -120.632864 306 216ft 0kts
28-Jul-20 19:26 35.234205 -120.632864 306 216ft 0kts
28-Jul-20 19:28 35.234205 -120.632864 306 216ft 0kts
28-Jul-20 19:28 35.234205 -120.632864 306 216ft 0kts
28-Jul-20 19:29 35.234205 -120.632864 306 216ft 0kts
28-Jul-20 19:30 35.234205 -120.632864 306 216ft 0kts
28-Jul-20 19:31 35.234205 -120.632864 306 216ft 0kts
28-Jul-20 19:32 35.234205 -120.632864 306 216ft 0kts
28-Jul-20 19:33 35.234205 -120.632864 306 216ft 0kts
28-Jul-20 19:34 35.234205 -120.632864 306 216ft 0kts
28-Jul-20 19:35 35.234205 -120.632864 306 216ft 0kts
28-Jul-20 19:36 35.234205 -120.632864 306 216ft 0kts
28-Jul-20 19:37 35.234205 -120.632864 306 216ft 0kts
28-Jul-20 19:38 35.234205 -120.632864 306 216ft 0kts
28-Jul-20 19:39 35.234205 -120.632864 306 216ft 0kts
28-Jul-20 19:40 35.234205 -120.632864 306 216ft 0kts
28-Jul-20 19:41 35.234205 -120.632864 306 216ft 0kts
28-Jul-20 19:42 35.234205 -120.632864 306 216ft 0kts
28-Jul-20 19:43 35.234205 -120.632864 306 216ft 0kts
28-Jul-20 19:44 35.234205 -120.632864 306 216ft 0kts
28-Jul-20 19:45 35.234390 -120.633398 299 216ft 6kts
28-Jul-20 19:46 35.233336 -120.632300 174 216ft 6kts
28-Jul-20 19:47 35.233209 -120.632321 201 215ft 0kts
28-Jul-20 19:48 35.234074 -120.635386 305 216ft 60kts
28-Jul-20 19:49 35.247224 -120.658265 300 871ft 89kts
28-Jul-20 19:50 35.259993 -120.689329 302 1789ft 112kts
28-Jul-20 19:51 35.281483 -120.716792 343 2768ft 119kts
28-Jul-20 19:52 35.315474 -120.709947 4 3696ft 123kts
28-Jul-20 19:53 35.348753 -120.702588 5 4510ft 132kts
28-Jul-20 19:54 35.390882 -120.694165 5 4503ft 166kts
28-Jul-20 19:55 35.437974 -120.685348 5 4477ft 174kts
28-Jul-20 19:56 35.485182 -120.677140 5 4452ft 167kts
28-Jul-20 19:57 35.530835 -120.666671 11 4436ft 166kts
28-Jul-20 19:58 35.575162 -120.651020 16 4436ft 165kts
28-Jul-20 19:59 35.619789 -120.638292 6 4437ft 165kts
28-Jul-20 20:00 35.665302 -120.630748 6 4436ft 165kts
28-Jul-20 20:01 35.710643 -120.631090 347 4439ft 164kts
28-Jul-20 20:02 35.755768 -120.639882 351 4436ft 164kts
28-Jul-20 20:03 35.801222 -120.645617 352 4436ft 164kts
28-Jul-20 20:04 35.846815 -120.650491 353 4436ft 165kts
28-Jul-20 20:05 35.892518 -120.655011 353 4437ft 165kts
28-Jul-20 20:06 35.938249 -120.658745 355 4437ft 165kts
28-Jul-20 20:07 35.984091 -120.661391 355 4437ft 165kts
28-Jul-20 20:08 36.030005 -120.663080 359 4437ft 165kts
28-Jul-20 20:09 36.075813 -120.661695 354 4436ft 165kts
28-Jul-20 20:10 36.121745 -120.665223 354 4520ft 160kts
28-Jul-20 20:11 36.161957 -120.665029 349 5409ft 136kts
28-Jul-20 20:12 36.203459 -120.672278 349 5438ft 161kts
28-Jul-20 20:13 36.248756 -120.681006 348 5432ft 166kts
28-Jul-20 20:14 36.294606 -120.689935 348 5431ft 167kts
28-Jul-20 20:15 36.340565 -120.699080 348 5436ft 167kts
28-Jul-20 20:16 36.386362 -120.709085 346 5423ft 166kts
28-Jul-20 20:17 36.431536 -120.719722 346 5408ft 164kts
28-Jul-20 20:18 36.475839 -120.731082 346 5396ft 161kts
28-Jul-20 20:19 36.519060 -120.745439 346 5400ft 160kts
28-Jul-20 20:20 36.562798 -120.754858 352 5406ft 161kts
28-Jul-20 20:21 36.607640 -120.759473 352 5408ft 162kts
28-Jul-20 20:22 36.653641 -120.764212 352 5092ft 169kts
28-Jul-20 20:23 36.699904 -120.774556 346 4703ft 170kts
28-Jul-20 20:24 36.745898 -120.786321 341 4416ft 164kts
28-Jul-20 20:25 36.788586 -120.800974 341 4425ft 156kts
28-Jul-20 20:26 36.830391 -120.815300 341 4433ft 155kts
28-Jul-20 20:27 36.871895 -120.829533 341 4439ft 155kts
28-Jul-20 20:28 36.913667 -120.843882 341 4446ft 155kts
28-Jul-20 20:29 36.955417 -120.858256 341 4453ft 156kts
28-Jul-20 20:30 36.997481 -120.872635 341 4447ft 157kts
28-Jul-20 20:31 37.039781 -120.886703 341 4434ft 157kts
28-Jul-20 20:32 37.082329 -120.900433 342 4418ft 158kts
28-Jul-20 20:33 37.124921 -120.913740 342 4398ft 158kts
28-Jul-20 20:34 37.167407 -120.926690 342 4395ft 157kts
28-Jul-20 20:35 37.209332 -120.940550 341 4388ft 153kts
28-Jul-20 20:36 37.248231 -120.958888 342 4391ft 147kts
28-Jul-20 20:37 37.286423 -120.977373 342 4390ft 147kts
28-Jul-20 20:38 37.324803 -120.994304 348 4391ft 146kts
28-Jul-20 20:39 37.363481 -121.010795 342 4390ft 147kts
28-Jul-20 20:40 37.403721 -121.024118 342 4390ft 151kts
28-Jul-20 20:41 37.444588 -121.036364 342 4390ft 151kts
28-Jul-20 20:42 37.485795 -121.047918 343 4390ft 151kts
28-Jul-20 20:43 37.526935 -121.059388 343 4390ft 151kts
28-Jul-20 20:44 37.566944 -121.074765 338 4389ft 150kts
28-Jul-20 20:45 37.606739 -121.090801 338 4389ft 150kts
28-Jul-20 20:46 37.646489 -121.106857 337 4392ft 150kts
28-Jul-20 20:47 37.685339 -121.125429 335 4396ft 149kts
28-Jul-20 20:48 37.724465 -121.144118 335 4400ft 150kts
28-Jul-20 20:49 37.763568 -121.162735 335 4404ft 150kts
28-Jul-20 20:50 37.802774 -121.181388 335 4406ft 151kts
28-Jul-20 20:51 37.842084 -121.200147 335 4408ft 151kts
28-Jul-20 20:52 37.881397 -121.218932 335 4408ft 151kts
28-Jul-20 20:53 37.919978 -121.239845 331 4408ft 150kts
28-Jul-20 20:54 37.957929 -121.262034 331 4358ft 153kts
28-Jul-20 20:55 37.995865 -121.284128 331 3947ft 147kts
28-Jul-20 20:56 38.033186 -121.305016 335 3541ft 146kts
28-Jul-20 20:57 38.069854 -121.320774 337 3399ft 126kts
28-Jul-20 20:58 38.102555 -121.334155 337 3412ft 132kts
28-Jul-20 20:59 38.139679 -121.349745 337 3482ft 140kts
28-Jul-20 21:00 38.178221 -121.365500 340 3497ft 150kts
28-Jul-20 21:01 38.218862 -121.380822 340 3491ft 154kts
28-Jul-20 21:03 38.260060 -121.397073 340 3479ft 156kts
28-Jul-20 21:04 38.300417 -121.412954 340 3450ft 135kts
28-Jul-20 21:05 38.335103 -121.426191 342 3028ft 133kts
28-Jul-20 21:06 38.371935 -121.438841 343 2638ft 140kts
28-Jul-20 21:07 38.410400 -121.452047 342 2164ft 146kts
28-Jul-20 21:08 38.445910 -121.464221 341 1953ft 101kts
28-Jul-20 21:09 38.472954 -121.475372 351 1795ft 110kts
28-Jul-20 21:10 38.501524 -121.473389 329 1016ft 104kts
28-Jul-20 21:11 38.516625 -121.493040 214 23ft 1kts
28-Jul-20 21:12 38.516077 -121.493357 214 23ft 0kts
28-Jul-20 21:13 38.511529 -121.497215 215 21ft 18kts
28-Jul-20 21:14 38.510906 -121.500002 190 21ft 0kts
28-Jul-20 21:15 38.510906 -121.500002 190 21ft 0kts
28-Jul-20 21:16 38.510906 -121.500002 190 21ft 0kts
28-Jul-20 21:17 38.510906 -121.500002 190 21ft 0kts
28-Jul-20 21:17 38.510906 -121.500002 190 21ft 0kts

Navigation Log

Ident Type
Flight plan parsing failed, navigation log unavailable